createdAt,value
2018-05-29T00:00:32.233Z,18.13
2018-05-29T00:02:59.747Z,20.30
2018-05-29T00:05:27.237Z,20.67
2018-05-29T00:07:55.528Z,18.67
2018-05-29T00:10:23.013Z,19.30
2018-05-29T00:12:50.519Z,19.30
2018-05-29T00:15:18.777Z,19.03
2018-05-29T00:17:46.292Z,18.63
2018-05-29T00:20:13.774Z,18.73
2018-05-29T00:22:41.297Z,20.40
2018-05-29T00:25:08.791Z,16.40
2018-05-29T00:27:36.285Z,15.27
2018-05-29T00:30:03.801Z,14.80
2018-05-29T00:32:31.313Z,15.87
2018-05-29T00:34:59.585Z,15.20
2018-05-29T00:37:27.825Z,13.87
2018-05-29T00:39:55.349Z,12.50
2018-05-29T00:42:22.841Z,13.47
2018-05-29T00:44:50.342Z,12.40
2018-05-29T00:47:18.599Z,13.03
2018-05-29T00:49:46.114Z,12.73
2018-05-29T00:52:13.614Z,15.10
2018-05-29T00:54:41.122Z,13.50
2018-05-29T00:57:08.601Z,15.73
2018-05-29T00:59:36.098Z,16.67
2018-05-29T01:02:04.338Z,16.00
2018-05-29T01:04:31.860Z,16.00
2018-05-29T01:06:59.363Z,16.20
2018-05-29T01:09:26.844Z,16.03
2018-05-29T01:11:55.141Z,15.27
2018-05-29T01:14:22.634Z,14.93
2018-05-29T01:16:50.136Z,14.37
2018-05-29T01:19:17.632Z,15.43
2018-05-29T01:21:45.141Z,16.57
2018-05-29T01:24:12.632Z,14.53
2018-05-29T01:26:40.897Z,14.57
2018-05-29T01:29:09.138Z,14.73
2018-05-29T01:31:36.658Z,15.63
2018-05-29T01:34:04.149Z,15.20
2018-05-29T01:36:31.647Z,15.93
2018-05-29T01:38:59.924Z,15.23
2018-05-29T01:41:28.257Z,15.60
2018-05-29T01:43:55.739Z,17.73
2018-05-29T01:46:23.259Z,16.93
2018-05-29T01:48:50.744Z,18.47
2018-05-29T01:51:18.301Z,17.87
2018-05-29T01:53:45.777Z,19.53
2018-05-29T01:56:13.449Z,24.00
2018-05-29T01:58:41.706Z,25.17
2018-05-29T02:01:09.189Z,21.70
2018-05-29T02:03:36.697Z,24.20
2018-05-29T02:06:04.183Z,25.20
2018-05-29T02:08:31.705Z,22.07
2018-05-29T02:10:59.189Z,24.10
2018-05-29T02:13:26.699Z,22.37
2018-05-29T02:15:54.198Z,26.40
2018-05-29T02:18:21.698Z,25.07
2018-05-29T02:20:49.961Z,24.20
2018-05-29T02:23:17.475Z,24.43
2018-05-29T02:25:44.956Z,27.10
2018-05-29T02:28:12.473Z,26.30
2018-05-29T02:30:39.993Z,25.23
2018-05-29T02:33:07.514Z,25.57
2018-05-29T02:35:34.994Z,20.33
2018-05-29T02:38:02.508Z,20.70
2018-05-29T02:40:30.000Z,19.20
2018-05-29T02:42:58.312Z,19.27
2018-05-29T02:45:26.550Z,22.13
2018-05-29T02:47:54.092Z,20.03
2018-05-29T02:50:21.564Z,18.67
2018-05-29T02:52:49.046Z,21.37
2018-05-29T02:55:16.562Z,17.83
2018-05-29T02:57:44.050Z,18.40
2018-05-29T03:00:11.555Z,18.17
2018-05-29T03:02:39.045Z,18.33
2018-05-29T03:05:06.544Z,20.17
2018-05-29T03:07:34.037Z,17.77
2018-05-29T03:10:01.542Z,19.07
2018-05-29T03:12:29.038Z,18.53
2018-05-29T03:14:57.316Z,19.57
2018-05-29T03:17:25.575Z,24.90
2018-05-29T03:19:53.851Z,19.50
2018-05-29T03:22:21.362Z,18.60
2018-05-29T03:24:48.874Z,18.77
2018-05-29T03:27:16.382Z,22.57
2018-05-29T03:29:43.885Z,23.43
2018-05-29T03:32:12.144Z,21.03
2018-05-29T03:34:39.659Z,20.60
2018-05-29T03:37:07.142Z,21.53
2018-05-29T03:39:34.666Z,24.30
2018-05-29T03:42:02.148Z,24.70
2018-05-29T03:44:29.667Z,19.03
2018-05-29T03:46:57.917Z,17.73
2018-05-29T03:49:25.444Z,17.07
2018-05-29T03:51:52.923Z,16.97
2018-05-29T03:54:20.403Z,18.40
2018-05-29T03:56:48.661Z,21.27
2018-05-29T03:59:17.051Z,19.17
2018-05-29T04:01:44.556Z,20.63
2018-05-29T04:04:12.051Z,20.00
2018-05-29T04:06:39.569Z,19.67
2018-05-29T04:09:07.067Z,18.70
2018-05-29T04:11:34.585Z,17.50
2018-05-29T04:14:02.083Z,17.27
2018-05-29T04:16:29.591Z,18.33
2018-05-29T04:18:57.090Z,22.03
2018-05-29T04:21:24.602Z,17.30
2018-05-29T04:23:52.091Z,17.20
2018-05-29T04:26:19.855Z,16.63
2018-05-29T04:28:47.321Z,17.10
2018-05-29T04:31:14.848Z,16.10
2018-05-29T04:33:42.327Z,15.90
2018-05-29T04:36:09.878Z,17.77
2018-05-29T04:38:37.340Z,19.40
2018-05-29T04:41:04.824Z,17.93
2018-05-29T04:43:32.329Z,17.20
2018-05-29T04:45:59.809Z,17.00
2018-05-29T04:48:27.334Z,16.60
2018-05-29T04:50:55.573Z,18.27
2018-05-29T04:53:23.073Z,18.30
2018-05-29T04:55:51.319Z,19.30
2018-05-29T04:58:18.838Z,17.23
2018-05-29T05:00:46.335Z,18.43
2018-05-29T05:03:13.836Z,17.57
2018-05-29T05:05:41.331Z,20.53
2018-05-29T05:08:08.842Z,17.83
2018-05-29T05:10:37.082Z,17.37
2018-05-29T05:13:04.627Z,17.60
2018-05-29T05:15:32.114Z,16.10
2018-05-29T05:17:59.605Z,15.13
2018-05-29T05:20:27.108Z,14.73
2018-05-29T05:22:54.593Z,13.90
2018-05-29T05:25:22.101Z,13.73
2018-05-29T05:27:49.593Z,13.57
2018-05-29T05:30:17.108Z,14.30
2018-05-29T05:32:44.606Z,14.17
2018-05-29T05:35:12.120Z,13.70
2018-05-29T05:37:39.596Z,13.23
2018-05-29T05:40:07.192Z,13.23
2018-05-29T05:42:34.679Z,14.57
2018-05-29T05:45:02.989Z,13.87
2018-05-29T05:47:30.460Z,13.57
2018-05-29T05:49:57.973Z,13.37
2018-05-29T05:52:25.453Z,13.97
2018-05-29T05:54:52.930Z,12.50
2018-05-29T05:57:20.479Z,14.10
2018-05-29T05:59:49.247Z,14.00
2018-05-29T06:02:17.433Z,13.77
2018-05-29T06:04:44.928Z,16.40
2018-05-29T06:07:12.457Z,12.83
2018-05-29T06:09:39.948Z,13.50
2018-05-29T06:12:07.458Z,10.77
2018-05-29T06:14:34.944Z,12.47
2018-05-29T06:17:02.493Z,12.20
2018-05-29T06:19:29.998Z,11.93
2018-05-29T06:21:57.527Z,14.23
2018-05-29T06:24:25.064Z,14.17
2018-05-29T06:26:53.334Z,12.77
2018-05-29T06:29:20.812Z,11.43
2018-05-29T06:31:48.310Z,10.73
2018-05-29T06:34:16.590Z,11.10
2018-05-29T06:36:44.848Z,11.43
2018-05-29T06:39:12.780Z,10.63
2018-05-29T06:41:40.272Z,10.57
2018-05-29T06:44:07.792Z,9.57
2018-05-29T06:46:35.283Z,13.43
2018-05-29T06:49:02.786Z,11.60
2018-05-29T06:51:30.284Z,13.80
2018-05-29T06:53:57.814Z,11.00
2018-05-29T06:56:25.309Z,11.10
2018-05-29T06:58:52.842Z,11.70
2018-05-29T07:01:20.318Z,12.07
2018-05-29T07:03:47.822Z,11.97
2018-05-29T07:06:16.070Z,9.80
2018-05-29T07:08:43.604Z,10.03
2018-05-29T07:11:11.078Z,10.30
2018-05-29T07:13:38.643Z,10.97
2018-05-29T07:16:06.167Z,12.80
2018-05-29T07:18:33.664Z,12.93
2018-05-29T07:21:01.194Z,13.63
2018-05-29T07:23:28.712Z,13.63
2018-05-29T07:25:56.226Z,16.70
2018-05-29T07:28:23.711Z,14.60
2018-05-29T07:30:51.226Z,13.77
2018-05-29T07:33:18.705Z,14.30
2018-05-29T07:35:46.227Z,12.80
2018-05-29T07:38:13.732Z,9.87
2018-05-29T07:40:42.024Z,10.47
2018-05-29T07:43:09.514Z,8.93
2018-05-29T07:45:37.031Z,9.20
2018-05-29T07:48:04.505Z,7.50
2018-05-29T07:50:32.784Z,8.83
2018-05-29T07:53:01.034Z,7.23
2018-05-29T07:55:28.558Z,6.47
2018-05-29T07:57:56.041Z,9.40
2018-05-29T08:00:23.561Z,8.43
2018-05-29T08:02:51.065Z,7.57
2018-05-29T08:05:18.593Z,7.73
2018-05-29T08:07:46.064Z,7.30
2018-05-29T08:10:13.532Z,7.23
2018-05-29T08:12:41.044Z,6.87
2018-05-29T08:15:08.515Z,5.90
2018-05-29T08:17:36.044Z,6.23
2018-05-29T08:20:04.276Z,6.13
2018-05-29T08:22:31.818Z,6.67
2018-05-29T08:24:59.300Z,9.53
2018-05-29T08:27:26.804Z,9.13
2018-05-29T08:29:54.303Z,7.03
2018-05-29T08:32:21.790Z,6.10
2018-05-29T08:34:49.274Z,5.67
2018-05-29T08:37:16.804Z,6.80
2018-05-29T08:39:45.138Z,7.97
2018-05-29T08:42:12.584Z,6.03
2018-05-29T08:44:40.048Z,6.77
2018-05-29T08:47:07.556Z,6.27
2018-05-29T08:49:35.132Z,7.40
2018-05-29T08:52:03.393Z,6.23
2018-05-29T08:54:30.885Z,4.40
2018-05-29T08:56:58.358Z,6.68
2018-05-29T08:59:25.892Z,4.12
2018-05-29T09:01:54.138Z,5.53
2018-05-29T09:04:21.747Z,6.05
2018-05-29T09:06:49.164Z,5.37
2018-05-29T09:09:16.672Z,5.78
2018-05-29T09:11:44.164Z,6.70
2018-05-29T09:14:11.677Z,5.75
2018-05-29T09:16:39.152Z,4.47
2018-05-29T09:19:06.961Z,5.85
2018-05-29T09:21:34.448Z,6.03
2018-05-29T09:24:02.045Z,4.35
2018-05-29T09:26:29.535Z,6.10
2018-05-29T09:28:57.052Z,9.55
2018-05-29T09:31:24.604Z,4.03
2018-05-29T09:33:52.118Z,4.18
2018-05-29T09:36:20.384Z,3.12
2018-05-29T09:38:47.898Z,6.28
2018-05-29T09:41:15.403Z,5.50
2018-05-29T09:43:42.920Z,5.20
2018-05-29T09:46:11.189Z,6.00
2018-05-29T09:48:38.683Z,4.72
2018-05-29T09:51:06.203Z,3.60
2018-05-29T09:53:33.677Z,5.87
2018-05-29T09:56:01.169Z,3.80
2018-05-29T09:58:28.643Z,5.28
2018-05-29T10:00:56.905Z,6.20
2018-05-29T10:03:24.389Z,4.30
2018-05-29T10:05:52.649Z,4.07
2018-05-29T10:08:20.894Z,3.05
2018-05-29T10:10:48.417Z,3.83
2018-05-29T10:13:15.937Z,5.12
2018-05-29T10:15:43.572Z,4.12
2018-05-29T10:18:11.060Z,5.95
2018-05-29T10:20:39.301Z,7.45
2018-05-29T10:23:06.827Z,4.35
2018-05-29T10:25:34.305Z,6.05
2018-05-29T10:28:01.814Z,5.87
2018-05-29T10:30:30.070Z,5.68
2018-05-29T10:32:57.607Z,5.25
2018-05-29T10:35:25.121Z,5.45
2018-05-29T10:37:52.639Z,7.03
2018-05-29T10:40:20.113Z,4.13
2018-05-29T10:42:47.640Z,4.60
2018-05-29T10:45:15.128Z,7.65
2018-05-29T10:47:42.654Z,6.50
2018-05-29T10:50:10.166Z,4.28
2018-05-29T10:52:38.453Z,6.60
2018-05-29T10:55:05.930Z,5.95
2018-05-29T10:57:33.447Z,7.28
2018-05-29T11:00:01.712Z,5.82
2018-05-29T11:02:29.996Z,6.25
2018-05-29T11:04:57.548Z,7.00
2018-05-29T11:07:25.244Z,6.70
2018-05-29T11:09:52.731Z,4.53
2018-05-29T11:12:20.211Z,4.47
2018-05-29T11:14:47.722Z,5.07
2018-05-29T11:17:15.200Z,4.95
2018-05-29T11:19:43.505Z,5.55
2018-05-29T11:22:10.991Z,3.78
2018-05-29T11:24:39.272Z,5.12
2018-05-29T11:27:07.537Z,9.13
2018-05-29T11:29:35.811Z,6.18
2018-05-29T11:32:04.061Z,4.68
2018-05-29T11:34:31.609Z,7.78
2018-05-29T11:36:59.090Z,6.70
2018-05-29T11:39:26.592Z,5.10
2018-05-29T11:41:54.070Z,6.10
2018-05-29T11:44:21.577Z,6.85
2018-05-29T11:46:50.700Z,6.32
2018-05-29T11:49:18.247Z,6.12
2018-05-29T11:51:46.513Z,5.63
2018-05-29T11:54:14.793Z,9.07
2018-05-29T11:56:43.072Z,6.03
2018-05-29T11:59:11.311Z,6.77
2018-05-29T12:01:39.546Z,8.80
2018-05-29T12:04:07.057Z,7.97
2018-05-29T12:06:34.566Z,7.47
2018-05-29T12:09:02.053Z,7.57
2018-05-29T12:11:29.575Z,12.33
2018-05-29T12:13:57.045Z,5.87
2018-05-29T12:16:24.556Z,7.23
2018-05-29T12:18:52.045Z,4.97
2018-05-29T12:21:20.335Z,6.60
2018-05-29T12:23:47.829Z,6.20
2018-05-29T12:26:15.349Z,7.47
2018-05-29T12:28:42.826Z,9.30
2018-05-29T12:31:10.315Z,4.60
2018-05-29T12:33:37.823Z,5.97
2018-05-29T12:36:05.300Z,7.23
2018-05-29T12:38:32.822Z,5.87
2018-05-29T12:41:01.092Z,6.50
2018-05-29T12:43:29.355Z,5.90
2018-05-29T12:45:56.842Z,5.12
2018-05-29T12:48:24.335Z,7.60
2018-05-29T12:50:51.842Z,6.07
2018-05-29T12:53:19.415Z,5.97
2018-05-29T12:55:46.857Z,6.55
2018-05-29T12:58:15.130Z,5.22
2018-05-29T13:00:42.597Z,5.25
2018-05-29T13:03:10.200Z,6.55
2018-05-29T13:05:37.716Z,7.82
2018-05-29T13:08:05.954Z,5.97
2018-05-29T13:10:33.458Z,5.65
2018-05-29T13:13:01.004Z,4.97
2018-05-29T13:15:29.314Z,6.03
2018-05-29T13:17:56.836Z,6.10
2018-05-29T13:20:24.350Z,3.58
2018-05-29T13:22:51.838Z,5.85
2018-05-29T13:25:19.348Z,5.12
2018-05-29T13:27:46.943Z,5.87
2018-05-29T13:30:14.498Z,4.95
2018-05-29T13:32:41.984Z,6.78
2018-05-29T13:35:10.299Z,4.68
2018-05-29T13:37:37.785Z,5.10
2018-05-29T13:40:05.325Z,5.75
2018-05-29T13:42:32.815Z,6.53
2018-05-29T13:45:00.302Z,7.22
2018-05-29T13:47:28.593Z,6.43
2018-05-29T13:49:56.121Z,5.82
2018-05-29T13:52:24.432Z,3.58
2018-05-29T13:54:51.912Z,5.15
2018-05-29T13:57:20.195Z,6.75
2018-05-29T13:59:47.695Z,5.75
2018-05-29T14:02:15.209Z,5.97
2018-05-29T14:04:42.701Z,5.45
2018-05-29T14:07:10.204Z,12.02
2018-05-29T14:09:37.699Z,7.03
2018-05-29T14:12:05.205Z,6.37
2018-05-29T14:14:32.684Z,5.68
2018-05-29T14:17:00.218Z,5.85
2018-05-29T14:19:27.705Z,6.32
2018-05-29T14:21:55.203Z,10.32
2018-05-29T14:24:22.713Z,6.12
2018-05-29T14:26:50.193Z,5.22
2018-05-29T14:29:17.699Z,5.85
2018-05-29T14:31:45.965Z,7.35
2018-05-29T14:34:13.471Z,6.82
2018-05-29T14:36:40.960Z,5.70
2018-05-29T14:39:08.470Z,6.82
2018-05-29T14:41:36.636Z,4.00
2018-05-29T14:44:04.208Z,5.68
2018-05-29T14:46:31.667Z,7.20
2018-05-29T14:48:59.180Z,5.47
2018-05-29T14:51:26.700Z,8.70
2018-05-29T14:53:54.216Z,4.53
2018-05-29T14:56:22.480Z,5.53
2018-05-29T14:58:50.030Z,6.72
2018-05-29T15:01:17.532Z,7.03
2018-05-29T15:03:45.038Z,4.82
2018-05-29T15:06:12.608Z,6.97
2018-05-29T15:08:40.102Z,4.75
2018-05-29T15:11:07.672Z,11.40
2018-05-29T15:13:35.153Z,7.43
2018-05-29T15:16:02.676Z,11.35
2018-05-29T15:18:30.240Z,5.90
2018-05-29T15:20:57.718Z,6.78
2018-05-29T15:23:25.245Z,6.87
2018-05-29T15:25:53.531Z,5.20
2018-05-29T15:28:21.023Z,5.43
2018-05-29T15:30:48.532Z,7.28
2018-05-29T15:33:16.799Z,5.32
2018-05-29T15:35:44.315Z,5.22
2018-05-29T15:38:11.808Z,5.15
2018-05-29T15:40:39.370Z,6.90
2018-05-29T15:43:06.872Z,3.67
2018-05-29T15:45:34.369Z,3.97
2018-05-29T15:48:01.930Z,5.28
2018-05-29T15:50:29.493Z,6.43
2018-05-29T15:52:57.086Z,4.80
2018-05-29T15:55:25.354Z,4.75
2018-05-29T15:57:53.648Z,6.10
2018-05-29T16:00:21.237Z,6.70
2018-05-29T16:02:48.745Z,4.18
2018-05-29T16:05:16.218Z,6.22
2018-05-29T16:07:44.494Z,9.48
2018-05-29T16:10:12.741Z,10.35
2018-05-29T16:12:40.250Z,7.30
2018-05-29T16:15:07.748Z,6.60
2018-05-29T16:17:35.280Z,8.15
2018-05-29T16:20:02.757Z,4.43
2018-05-29T16:22:30.394Z,3.42
2018-05-29T16:24:57.928Z,7.07
2018-05-29T16:27:25.422Z,8.27
2018-05-29T16:29:52.973Z,8.52
2018-05-29T16:32:20.454Z,8.00
2018-05-29T16:34:47.967Z,5.55
2018-05-29T16:37:15.449Z,5.50
2018-05-29T16:39:42.951Z,4.95
2018-05-29T16:42:10.429Z,8.00
2018-05-29T16:44:38.699Z,7.90
2018-05-29T16:47:06.975Z,5.50
2018-05-29T16:49:35.256Z,5.47
2018-05-29T16:52:03.506Z,4.90
2018-05-29T16:54:31.032Z,7.85
2018-05-29T16:56:58.520Z,5.70
2018-05-29T16:59:31.634Z,5.40
2018-05-29T17:02:07.458Z,3.72
2018-05-29T17:04:35.382Z,5.47
2018-05-29T17:07:02.862Z,4.30
2018-05-29T17:09:30.402Z,6.35
2018-05-29T17:11:57.905Z,4.25
2018-05-29T17:14:26.028Z,4.28
2018-05-29T17:16:57.742Z,4.05
2018-05-29T17:19:25.239Z,3.50
2018-05-29T17:21:52.820Z,4.72
2018-05-29T17:24:21.297Z,2.62
2018-05-29T17:26:48.805Z,3.83
2018-05-29T17:29:17.058Z,4.43
2018-05-29T17:31:44.624Z,4.30
2018-05-29T17:34:12.130Z,4.07
2018-05-29T17:36:39.662Z,5.85
2018-05-29T17:39:07.150Z,6.37
2018-05-29T17:41:34.672Z,5.10
2018-05-29T17:44:02.165Z,3.80
2018-05-29T17:46:29.686Z,2.80
2018-05-29T17:48:57.165Z,3.37
2018-05-29T17:51:25.450Z,4.75
2018-05-29T17:53:53.715Z,6.90
2018-05-29T17:56:22.035Z,3.62
2018-05-29T17:58:49.865Z,5.12
2018-05-29T18:01:18.148Z,7.20
2018-05-29T18:03:45.655Z,6.62
2018-05-29T18:06:13.159Z,6.47
2018-05-29T18:08:41.562Z,4.78
2018-05-29T18:11:09.038Z,4.15
2018-05-29T18:13:36.578Z,4.18
2018-05-29T18:16:04.066Z,3.65
2018-05-29T18:18:31.649Z,5.72
2018-05-29T18:20:59.115Z,2.83
2018-05-29T18:23:27.404Z,4.20
2018-05-29T18:25:54.922Z,5.12
2018-05-29T18:28:22.433Z,5.90
2018-05-29T18:30:49.911Z,3.58
2018-05-29T18:33:17.467Z,5.87
2018-05-29T18:35:44.940Z,5.40
2018-05-29T18:38:12.467Z,4.68
2018-05-29T18:40:39.959Z,4.95
2018-05-29T18:43:18.890Z,5.20
2018-05-29T18:45:46.391Z,7.37
2018-05-29T18:48:14.684Z,4.03
2018-05-29T18:50:42.148Z,4.37
2018-05-29T18:53:10.954Z,4.17
2018-05-29T18:55:38.492Z,5.33
2018-05-29T18:58:06.047Z,6.10
2018-05-29T19:00:34.306Z,8.00
2018-05-29T19:03:02.596Z,5.83
2018-05-29T19:05:30.112Z,4.17
2018-05-29T19:07:57.605Z,5.97
2018-05-29T19:10:25.900Z,6.00
2018-05-29T19:12:53.382Z,7.40
2018-05-29T19:15:21.376Z,6.23
2018-05-29T19:17:49.637Z,5.50
2018-05-29T19:20:17.132Z,4.87
2018-05-29T19:22:45.407Z,5.43
2018-05-29T19:25:12.946Z,4.17
2018-05-29T19:27:40.431Z,7.30
2018-05-29T19:30:08.709Z,4.13
2018-05-29T19:32:37.016Z,6.30
2018-05-29T19:35:06.011Z,5.13
2018-05-29T19:37:33.479Z,5.80
2018-05-29T19:40:01.978Z,4.70
2018-05-29T19:42:29.498Z,5.87
2018-05-29T19:44:57.012Z,4.97
2018-05-29T19:47:24.524Z,5.50
2018-05-29T19:49:52.061Z,6.73
2018-05-29T19:52:20.317Z,5.70
2018-05-29T19:54:48.567Z,8.23
2018-05-29T19:57:16.085Z,3.97
2018-05-29T19:59:43.571Z,4.53
2018-05-29T20:02:11.078Z,6.87
2018-05-29T20:04:38.560Z,8.73
2018-05-29T20:07:06.077Z,4.97
2018-05-29T20:09:33.573Z,6.37
2018-05-29T20:12:01.079Z,5.50
2018-05-29T20:14:29.338Z,6.63
2018-05-29T20:16:56.846Z,4.73
2018-05-29T20:19:25.091Z,5.33
2018-05-29T20:21:52.586Z,5.70
2018-05-29T20:24:20.114Z,7.70
2018-05-29T20:26:47.594Z,7.97
2018-05-29T20:29:15.119Z,6.20
2018-05-29T20:31:42.650Z,5.97
2018-05-29T20:34:10.178Z,6.97
2018-05-29T20:36:38.501Z,6.83
2018-05-29T20:39:06.038Z,5.37
2018-05-29T20:41:33.531Z,4.33
2018-05-29T20:44:01.034Z,6.53
2018-05-29T20:46:29.274Z,7.83
2018-05-29T20:48:56.818Z,7.67
2018-05-29T20:51:24.301Z,6.53
2018-05-29T20:53:51.817Z,6.13
2018-05-29T20:56:19.291Z,7.07
2018-05-29T20:58:46.838Z,7.43
2018-05-29T21:01:14.324Z,5.97
2018-05-29T21:03:41.845Z,13.67
2018-05-29T21:06:09.357Z,6.70
2018-05-29T21:08:37.619Z,7.67
2018-05-29T21:11:05.132Z,7.93
2018-05-29T21:13:32.618Z,8.07
2018-05-29T21:16:00.132Z,7.40
2018-05-29T21:18:28.667Z,9.10
2018-05-29T21:20:56.181Z,8.50
2018-05-29T21:23:23.665Z,7.30
2018-05-29T21:25:51.172Z,6.13
2018-05-29T21:28:19.469Z,6.37
2018-05-29T21:30:47.713Z,5.90
2018-05-29T21:33:15.173Z,7.00
2018-05-29T21:35:42.714Z,5.47
2018-05-29T21:38:10.214Z,6.27
2018-05-29T21:40:38.479Z,7.23
2018-05-29T21:43:06.909Z,8.60
2018-05-29T21:45:34.399Z,5.37
2018-05-29T21:48:02.865Z,7.00
2018-05-29T21:50:30.362Z,7.80
2018-05-29T21:52:58.671Z,5.87
2018-05-29T21:55:26.146Z,8.23
2018-05-29T21:57:53.648Z,7.53
2018-05-29T22:00:21.904Z,7.83
2018-05-29T22:02:50.020Z,6.97
2018-05-29T22:05:17.500Z,7.00
2018-05-29T22:07:45.014Z,7.83
2018-05-29T22:10:13.273Z,8.27
2018-05-29T22:12:41.291Z,5.63
2018-05-29T22:15:08.821Z,6.47
2018-05-29T22:17:37.067Z,7.23
2018-05-29T22:20:04.563Z,7.47
2018-05-29T22:22:32.061Z,10.23
2018-05-29T22:24:59.564Z,11.97
2018-05-29T22:27:27.828Z,9.53
2018-05-29T22:29:55.329Z,8.37
2018-05-29T22:32:22.817Z,8.90
2018-05-29T22:34:50.325Z,10.63
2018-05-29T22:37:18.567Z,7.40
2018-05-29T22:39:46.075Z,7.17
2018-05-29T22:42:13.572Z,11.87
2018-05-29T22:44:41.063Z,7.00
2018-05-29T22:47:09.298Z,7.70
2018-05-29T22:49:36.835Z,10.07
2018-05-29T22:52:04.319Z,9.87
2018-05-29T22:54:31.804Z,7.67
2018-05-29T22:56:59.314Z,9.20
2018-05-29T22:59:26.792Z,9.10
2018-05-29T23:01:55.056Z,9.33
2018-05-29T23:04:22.539Z,7.50
2018-05-29T23:06:50.036Z,9.00
2018-05-29T23:09:18.273Z,8.37
2018-05-29T23:11:45.763Z,7.03
2018-05-29T23:14:14.071Z,6.40
2018-05-29T23:16:41.572Z,7.83
2018-05-29T23:19:09.064Z,6.83
2018-05-29T23:21:36.613Z,7.50
2018-05-29T23:24:04.069Z,7.63
2018-05-29T23:26:32.354Z,7.77
2018-05-29T23:29:00.608Z,6.83
2018-05-29T23:31:28.931Z,7.73
2018-05-29T23:33:56.416Z,8.33
2018-05-29T23:36:23.924Z,9.73
2018-05-29T23:38:52.223Z,9.33
2018-05-29T23:41:19.696Z,10.13
2018-05-29T23:43:47.195Z,8.97
2018-05-29T23:46:15.443Z,7.83
2018-05-29T23:48:42.966Z,7.43
2018-05-29T23:51:10.430Z,7.97
2018-05-29T23:53:37.917Z,10.40
2018-05-29T23:56:05.417Z,7.60
2018-05-29T23:58:33.688Z,6.60
